sensor_id;sensor_type;location;lat;lon;timestamp;pressure;altitude;pressure_sealevel;temperature;humidity
13407;BME280;6774;48.208;10.766;2023-03-13T00:00:51;95206.41;;;9.08;75.71
13407;BME280;6774;48.208;10.766;2023-03-13T00:03:20;95207.66;;;9.12;75.40
13407;BME280;6774;48.208;10.766;2023-03-13T00:05:47;95200.38;;;9.14;75.42
13407;BME280;6774;48.208;10.766;2023-03-13T00:08:15;95188.59;;;9.10;75.30
13407;BME280;6774;48.208;10.766;2023-03-13T00:10:44;95189.41;;;9.10;75.41
13407;BME280;6774;48.208;10.766;2023-03-13T00:13:12;95196.78;;;9.15;75.27
13407;BME280;6774;48.208;10.766;2023-03-13T00:15:40;95186.59;;;9.12;75.40
13407;BME280;6774;48.208;10.766;2023-03-13T00:18:08;95188.00;;;9.08;75.34
13407;BME280;6774;48.208;10.766;2023-03-13T00:20:35;95183.22;;;8.97;75.50
13407;BME280;6774;48.208;10.766;2023-03-13T00:23:03;95186.31;;;8.86;76.41
13407;BME280;6774;48.208;10.766;2023-03-13T00:25:31;95184.44;;;8.79;76.73
13407;BME280;6774;48.208;10.766;2023-03-13T00:28:00;95190.31;;;8.67;76.97
13407;BME280;6774;48.208;10.766;2023-03-13T00:30:28;95190.41;;;8.59;77.08
13407;BME280;6774;48.208;10.766;2023-03-13T00:32:56;95183.66;;;8.35;77.33
13407;BME280;6774;48.208;10.766;2023-03-13T00:35:24;95188.03;;;8.19;77.92
13407;BME280;6774;48.208;10.766;2023-03-13T00:37:52;95171.53;;;8.11;77.69
13407;BME280;6774;48.208;10.766;2023-03-13T00:40:20;95173.66;;;8.15;78.50
13407;BME280;6774;48.208;10.766;2023-03-13T00:42:48;95172.47;;;8.18;78.47
13407;BME280;6774;48.208;10.766;2023-03-13T00:45:17;95160.88;;;8.27;78.89
13407;BME280;6774;48.208;10.766;2023-03-13T00:47:45;95164.88;;;8.23;78.49
13407;BME280;6774;48.208;10.766;2023-03-13T00:50:15;95161.38;;;8.22;78.63
13407;BME280;6774;48.208;10.766;2023-03-13T00:52:43;95168.47;;;8.22;78.37
13407;BME280;6774;48.208;10.766;2023-03-13T00:55:10;95160.75;;;8.20;78.16
13407;BME280;6774;48.208;10.766;2023-03-13T00:57:38;95157.41;;;8.12;78.46
13407;BME280;6774;48.208;10.766;2023-03-13T01:00:07;95160.22;;;8.10;79.12
13407;BME280;6774;48.208;10.766;2023-03-13T01:02:41;95156.34;;;8.06;79.02
13407;BME280;6774;48.208;10.766;2023-03-13T01:05:09;95162.47;;;8.13;78.54
13407;BME280;6774;48.208;10.766;2023-03-13T01:07:38;95154.25;;;8.16;78.55
13407;BME280;6774;48.208;10.766;2023-03-13T01:10:07;95160.75;;;8.20;78.68
13407;BME280;6774;48.208;10.766;2023-03-13T01:12:35;95153.69;;;8.21;78.61
13407;BME280;6774;48.208;10.766;2023-03-13T01:15:05;95153.88;;;8.19;78.24
13407;BME280;6774;48.208;10.766;2023-03-13T01:17:33;95152.25;;;8.18;78.20
13407;BME280;6774;48.208;10.766;2023-03-13T01:20:03;95146.63;;;8.21;78.46
13407;BME280;6774;48.208;10.766;2023-03-13T01:22:31;95137.72;;;8.22;77.98
13407;BME280;6774;48.208;10.766;2023-03-13T01:24:59;95141.84;;;8.25;77.70
13407;BME280;6774;48.208;10.766;2023-03-13T01:27:27;95135.38;;;8.27;77.79
13407;BME280;6774;48.208;10.766;2023-03-13T01:29:55;95138.66;;;8.30;77.52
13407;BME280;6774;48.208;10.766;2023-03-13T01:32:23;95129.41;;;8.34;77.89
13407;BME280;6774;48.208;10.766;2023-03-13T01:34:51;95129.06;;;8.37;77.21
13407;BME280;6774;48.208;10.766;2023-03-13T01:37:20;95123.50;;;8.32;77.40
13407;BME280;6774;48.208;10.766;2023-03-13T01:39:48;95118.81;;;8.27;77.70
13407;BME280;6774;48.208;10.766;2023-03-13T01:42:16;95119.25;;;8.31;77.69
13407;BME280;6774;48.208;10.766;2023-03-13T01:44:50;95117.94;;;8.35;77.39
13407;BME280;6774;48.208;10.766;2023-03-13T01:47:18;95108.03;;;8.37;77.78
13407;BME280;6774;48.208;10.766;2023-03-13T01:50:08;95110.94;;;8.42;77.30
13407;BME280;6774;48.208;10.766;2023-03-13T01:52:55;95104.94;;;8.48;76.94
13407;BME280;6774;48.208;10.766;2023-03-13T01:55:27;95104.50;;;8.44;77.24
13407;BME280;6774;48.208;10.766;2023-03-13T01:57:55;95104.22;;;8.39;76.85
13407;BME280;6774;48.208;10.766;2023-03-13T02:00:26;95101.41;;;8.41;77.27
13407;BME280;6774;48.208;10.766;2023-03-13T02:02:57;95103.69;;;8.44;76.99
13407;BME280;6774;48.208;10.766;2023-03-13T02:05:27;95097.59;;;8.43;76.48
13407;BME280;6774;48.208;10.766;2023-03-13T02:08:01;95105.56;;;8.50;76.86
13407;BME280;6774;48.208;10.766;2023-03-13T02:10:30;95100.13;;;8.51;76.68
13407;BME280;6774;48.208;10.766;2023-03-13T02:13:01;95102.50;;;8.46;76.58
13407;BME280;6774;48.208;10.766;2023-03-13T02:15:30;95100.59;;;8.25;77.24
13407;BME280;6774;48.208;10.766;2023-03-13T02:17:57;95099.53;;;8.05;78.32
13407;BME280;6774;48.208;10.766;2023-03-13T02:20:26;95106.75;;;8.03;79.03
13407;BME280;6774;48.208;10.766;2023-03-13T02:22:59;95099.25;;;8.00;79.46
13407;BME280;6774;48.208;10.766;2023-03-13T02:25:38;95101.69;;;8.16;78.99
13407;BME280;6774;48.208;10.766;2023-03-13T02:28:12;95104.94;;;8.04;79.17
13407;BME280;6774;48.208;10.766;2023-03-13T02:30:43;95101.69;;;8.16;78.92
13407;BME280;6774;48.208;10.766;2023-03-13T02:33:11;95100.41;;;8.12;79.58
13407;BME280;6774;48.208;10.766;2023-03-13T02:35:41;95098.22;;;8.31;78.36
13407;BME280;6774;48.208;10.766;2023-03-13T02:38:15;95105.59;;;8.35;78.16
13407;BME280;6774;48.208;10.766;2023-03-13T02:40:48;95096.41;;;8.46;77.77
13407;BME280;6774;48.208;10.766;2023-03-13T02:43:21;95094.59;;;8.32;78.49
13407;BME280;6774;48.208;10.766;2023-03-13T02:46:01;95101.66;;;8.46;78.10
13407;BME280;6774;48.208;10.766;2023-03-13T02:48:33;95104.09;;;8.62;77.43
13407;BME280;6774;48.208;10.766;2023-03-13T02:51:05;95103.72;;;8.65;77.46
13407;BME280;6774;48.208;10.766;2023-03-13T02:53:34;95099.66;;;8.48;77.67
13407;BME280;6774;48.208;10.766;2023-03-13T02:56:05;95105.00;;;8.54;77.61
13407;BME280;6774;48.208;10.766;2023-03-13T02:58:38;95095.19;;;8.63;77.94
13407;BME280;6774;48.208;10.766;2023-03-13T03:01:16;95100.94;;;8.52;77.77
13407;BME280;6774;48.208;10.766;2023-03-13T03:03:45;95100.03;;;8.45;78.18
13407;BME280;6774;48.208;10.766;2023-03-13T03:06:13;95096.59;;;8.44;78.25
13407;BME280;6774;48.208;10.766;2023-03-13T03:08:40;95099.31;;;8.51;78.08
13407;BME280;6774;48.208;10.766;2023-03-13T03:11:12;95097.50;;;8.51;78.03
13407;BME280;6774;48.208;10.766;2023-03-13T03:13:42;95090.94;;;8.62;77.58
13407;BME280;6774;48.208;10.766;2023-03-13T03:16:12;95087.69;;;8.60;77.23
13407;BME280;6774;48.208;10.766;2023-03-13T03:18:44;95089.03;;;8.56;77.63
13407;BME280;6774;48.208;10.766;2023-03-13T03:21:12;95089.13;;;8.63;77.03
13407;BME280;6774;48.208;10.766;2023-03-13T03:23:40;95087.03;;;8.58;77.24
13407;BME280;6774;48.208;10.766;2023-03-13T03:26:07;95076.22;;;8.68;76.92
13407;BME280;6774;48.208;10.766;2023-03-13T03:28:36;95072.72;;;8.61;76.88
13407;BME280;6774;48.208;10.766;2023-03-13T03:31:11;95067.78;;;8.72;76.63
13407;BME280;6774;48.208;10.766;2023-03-13T03:33:40;95059.78;;;8.80;76.40
13407;BME280;6774;48.208;10.766;2023-03-13T03:36:12;95061.94;;;8.77;76.27
13407;BME280;6774;48.208;10.766;2023-03-13T03:38:40;95059.16;;;8.78;76.37
13407;BME280;6774;48.208;10.766;2023-03-13T03:41:12;95054.34;;;8.67;76.76
13407;BME280;6774;48.208;10.766;2023-03-13T03:43:42;95049.22;;;8.59;76.76
13407;BME280;6774;48.208;10.766;2023-03-13T03:46:13;95049.78;;;8.76;76.15
13407;BME280;6774;48.208;10.766;2023-03-13T03:48:42;95042.72;;;8.76;76.82
13407;BME280;6774;48.208;10.766;2023-03-13T03:51:12;95048.88;;;8.62;77.17
13407;BME280;6774;48.208;10.766;2023-03-13T03:53:42;95037.06;;;8.58;76.99
13407;BME280;6774;48.208;10.766;2023-03-13T03:56:10;95035.63;;;8.77;76.88
13407;BME280;6774;48.208;10.766;2023-03-13T03:58:45;95017.41;;;8.75;76.88
13407;BME280;6774;48.208;10.766;2023-03-13T04:01:33;95019.31;;;8.81;76.93
13407;BME280;6774;48.208;10.766;2023-03-13T04:04:02;95023.84;;;8.94;76.01
13407;BME280;6774;48.208;10.766;2023-03-13T04:06:30;95012.78;;;8.99;75.61
13407;BME280;6774;48.208;10.766;2023-03-13T04:08:58;95010.50;;;8.96;75.99
13407;BME280;6774;48.208;10.766;2023-03-13T04:11:28;95004.81;;;8.92;76.17
13407;BME280;6774;48.208;10.766;2023-03-13T04:13:57;94997.34;;;8.96;75.49
13407;BME280;6774;48.208;10.766;2023-03-13T04:16:25;94999.84;;;9.04;74.90
13407;BME280;6774;48.208;10.766;2023-03-13T04:18:54;95003.50;;;9.03;75.27
13407;BME280;6774;48.208;10.766;2023-03-13T04:21:24;95003.25;;;8.98;75.68
13407;BME280;6774;48.208;10.766;2023-03-13T04:23:58;95003.88;;;9.00;75.86
13407;BME280;6774;48.208;10.766;2023-03-13T04:26:26;95006.16;;;8.81;76.49
13407;BME280;6774;48.208;10.766;2023-03-13T04:28:57;95004.28;;;8.97;75.90
13407;BME280;6774;48.208;10.766;2023-03-13T04:31:39;95002.59;;;8.89;76.63
13407;BME280;6774;48.208;10.766;2023-03-13T04:34:25;95002.25;;;8.99;76.68
13407;BME280;6774;48.208;10.766;2023-03-13T04:37:02;95004.28;;;8.97;77.04
13407;BME280;6774;48.208;10.766;2023-03-13T04:39:49;94995.56;;;8.96;76.97
13407;BME280;6774;48.208;10.766;2023-03-13T04:42:45;94988.00;;;9.15;76.04
13407;BME280;6774;48.208;10.766;2023-03-13T04:45:36;94984.69;;;9.34;75.05
13407;BME280;6774;48.208;10.766;2023-03-13T04:48:15;94993.03;;;9.37;74.22
13407;BME280;6774;48.208;10.766;2023-03-13T04:51:03;94996.59;;;9.30;76.01
13407;BME280;6774;48.208;10.766;2023-03-13T04:53:50;94984.41;;;9.22;76.28
13407;BME280;6774;48.208;10.766;2023-03-13T04:56:36;94982.63;;;9.29;76.49
13407;BME280;6774;48.208;10.766;2023-03-13T04:59:24;94974.13;;;9.27;75.71
13407;BME280;6774;48.208;10.766;2023-03-13T05:02:09;94973.56;;;9.38;75.47
13407;BME280;6774;48.208;10.766;2023-03-13T05:04:58;94980.06;;;9.36;74.76
13407;BME280;6774;48.208;10.766;2023-03-13T05:07:48;94967.75;;;9.43;74.83
13407;BME280;6774;48.208;10.766;2023-03-13T05:10:32;94974.66;;;9.51;74.21
13407;BME280;6774;48.208;10.766;2023-03-13T05:13:13;94964.34;;;9.56;74.27
13407;BME280;6774;48.208;10.766;2023-03-13T05:15:58;94954.69;;;9.63;72.96
13407;BME280;6774;48.208;10.766;2023-03-13T05:18:35;94931.81;;;9.70;71.96
13407;BME280;6774;48.208;10.766;2023-03-13T05:21:19;94927.19;;;9.85;71.12
13407;BME280;6774;48.208;10.766;2023-03-13T05:24:04;94928.03;;;9.92;70.57
13407;BME280;6774;48.208;10.766;2023-03-13T05:26:32;94917.94;;;10.03;69.70
13407;BME280;6774;48.208;10.766;2023-03-13T05:29:21;94918.97;;;10.15;69.08
13407;BME280;6774;48.208;10.766;2023-03-13T05:32:07;94914.56;;;10.22;68.62
13407;BME280;6774;48.208;10.766;2023-03-13T05:34:47;94917.03;;;10.30;68.26
13407;BME280;6774;48.208;10.766;2023-03-13T05:37:44;94921.88;;;10.33;68.47
13407;BME280;6774;48.208;10.766;2023-03-13T05:40:24;94923.09;;;10.31;69.43
13407;BME280;6774;48.208;10.766;2023-03-13T05:43:11;94927.53;;;10.23;70.49
13407;BME280;6774;48.208;10.766;2023-03-13T05:45:59;94910.53;;;10.33;70.18
13407;BME280;6774;48.208;10.766;2023-03-13T05:48:45;94923.88;;;10.18;71.39
13407;BME280;6774;48.208;10.766;2023-03-13T05:51:38;94919.56;;;10.04;71.06
13407;BME280;6774;48.208;10.766;2023-03-13T05:54:35;94902.38;;;10.21;70.28
13407;BME280;6774;48.208;10.766;2023-03-13T05:57:23;94907.91;;;10.39;69.47
13407;BME280;6774;48.208;10.766;2023-03-13T06:00:15;94898.78;;;10.48;70.34
13407;BME280;6774;48.208;10.766;2023-03-13T06:03:18;94896.38;;;10.53;69.40
13407;BME280;6774;48.208;10.766;2023-03-13T06:05:49;94893.13;;;10.51;69.13
13407;BME280;6774;48.208;10.766;2023-03-13T06:08:29;94891.31;;;10.52;70.96
13407;BME280;6774;48.208;10.766;2023-03-13T06:11:00;94896.38;;;10.67;69.43
13407;BME280;6774;48.208;10.766;2023-03-13T06:13:29;94886.22;;;10.77;69.51
13407;BME280;6774;48.208;10.766;2023-03-13T06:16:03;94895.97;;;10.83;69.08
13407;BME280;6774;48.208;10.766;2023-03-13T06:18:38;94889.06;;;10.82;69.17
13407;BME280;6774;48.208;10.766;2023-03-13T06:21:06;94904.06;;;10.75;68.88
13407;BME280;6774;48.208;10.766;2023-03-13T06:23:35;94892.28;;;10.77;69.92
13407;BME280;6774;48.208;10.766;2023-03-13T06:26:03;94901.66;;;10.80;68.35
13407;BME280;6774;48.208;10.766;2023-03-13T06:28:31;94892.69;;;10.94;68.94
13407;BME280;6774;48.208;10.766;2023-03-13T06:31:02;94895.97;;;10.90;68.67
13407;BME280;6774;48.208;10.766;2023-03-13T06:33:30;94906.91;;;10.93;68.96
13407;BME280;6774;48.208;10.766;2023-03-13T06:35:59;94898.81;;;10.75;68.75
13407;BME280;6774;48.208;10.766;2023-03-13T06:38:28;94893.72;;;10.93;68.23
13407;BME280;6774;48.208;10.766;2023-03-13T06:40:57;94905.72;;;10.89;68.59
13407;BME280;6774;48.208;10.766;2023-03-13T06:43:25;94900.00;;;10.92;68.36
13407;BME280;6774;48.208;10.766;2023-03-13T06:45:53;94901.63;;;11.00;67.57
13407;BME280;6774;48.208;10.766;2023-03-13T06:48:21;94900.19;;;11.10;66.90
13407;BME280;6774;48.208;10.766;2023-03-13T06:50:49;94885.56;;;11.15;67.60
13407;BME280;6774;48.208;10.766;2023-03-13T06:53:18;94897.34;;;11.05;67.59
13407;BME280;6774;48.208;10.766;2023-03-13T06:55:47;94886.19;;;11.03;66.81
13407;BME280;6774;48.208;10.766;2023-03-13T06:58:17;94906.50;;;11.09;67.28
13407;BME280;6774;48.208;10.766;2023-03-13T07:00:58;94897.53;;;11.24;66.65
13407;BME280;6774;48.208;10.766;2023-03-13T07:03:26;94885.97;;;11.25;66.77
13407;BME280;6774;48.208;10.766;2023-03-13T07:05:55;94880.47;;;11.26;67.78
13407;BME280;6774;48.208;10.766;2023-03-13T07:08:23;94870.22;;;11.50;66.30
13407;BME280;6774;48.208;10.766;2023-03-13T07:10:52;94874.31;;;11.39;66.87
13407;BME280;6774;48.208;10.766;2023-03-13T07:13:21;94873.53;;;11.32;67.08
13407;BME280;6774;48.208;10.766;2023-03-13T07:15:49;94866.63;;;11.37;67.43
13407;BME280;6774;48.208;10.766;2023-03-13T07:18:16;94875.56;;;11.36;67.46
13407;BME280;6774;48.208;10.766;2023-03-13T07:20:51;94878.22;;;11.30;66.98
13407;BME280;6774;48.208;10.766;2023-03-13T07:23:20;94883.06;;;11.33;66.85
13407;BME280;6774;48.208;10.766;2023-03-13T07:25:55;94886.31;;;11.42;68.34
13407;BME280;6774;48.208;10.766;2023-03-13T07:28:25;94894.69;;;11.25;67.94
13407;BME280;6774;48.208;10.766;2023-03-13T07:30:52;94895.84;;;11.43;67.56
13407;BME280;6774;48.208;10.766;2023-03-13T07:33:20;94888.56;;;11.38;67.77
13407;BME280;6774;48.208;10.766;2023-03-13T07:35:49;94879.97;;;11.49;68.70
13407;BME280;6774;48.208;10.766;2023-03-13T07:38:17;94871.69;;;11.32;68.41
13407;BME280;6774;48.208;10.766;2023-03-13T07:40:48;94872.75;;;11.25;69.59
13407;BME280;6774;48.208;10.766;2023-03-13T07:43:16;94868.28;;;11.25;70.49
13407;BME280;6774;48.208;10.766;2023-03-13T07:45:53;94879.28;;;11.02;72.24
13407;BME280;6774;48.208;10.766;2023-03-13T07:48:22;94881.13;;;10.95;71.45
13407;BME280;6774;48.208;10.766;2023-03-13T07:50:50;94891.91;;;10.61;75.89
13407;BME280;6774;48.208;10.766;2023-03-13T07:53:18;94891.88;;;10.34;75.87
13407;BME280;6774;48.208;10.766;2023-03-13T07:55:54;94893.50;;;10.35;76.84
13407;BME280;6774;48.208;10.766;2023-03-13T07:58:23;94888.25;;;10.35;77.50
13407;BME280;6774;48.208;10.766;2023-03-13T08:00:52;94891.66;;;10.29;78.43
13407;BME280;6774;48.208;10.766;2023-03-13T08:03:21;94897.97;;;10.41;76.70
13407;BME280;6774;48.208;10.766;2023-03-13T08:05:57;94888.66;;;10.52;77.04
13407;BME280;6774;48.208;10.766;2023-03-13T08:08:25;94904.88;;;10.69;76.08
13407;BME280;6774;48.208;10.766;2023-03-13T08:10:53;94900.81;;;10.66;75.84
13407;BME280;6774;48.208;10.766;2023-03-13T08:13:20;94899.22;;;10.98;74.88
13407;BME280;6774;48.208;10.766;2023-03-13T08:15:48;94893.09;;;11.18;74.41
13407;BME280;6774;48.208;10.766;2023-03-13T08:18:17;94893.03;;;11.37;74.29
13407;BME280;6774;48.208;10.766;2023-03-13T08:20:45;94892.53;;;11.60;71.93
13407;BME280;6774;48.208;10.766;2023-03-13T08:23:13;94889.44;;;11.70;72.40
13407;BME280;6774;48.208;10.766;2023-03-13T08:25:40;94900.44;;;11.80;71.11
13407;BME280;6774;48.208;10.766;2023-03-13T08:28:08;94881.50;;;11.90;70.97
13407;BME280;6774;48.208;10.766;2023-03-13T08:30:36;94883.13;;;11.91;70.09
13407;BME280;6774;48.208;10.766;2023-03-13T08:33:04;94865.56;;;11.96;70.35
13407;BME280;6774;48.208;10.766;2023-03-13T08:35:34;94871.06;;;11.95;69.11
13407;BME280;6774;48.208;10.766;2023-03-13T08:38:02;94864.47;;;12.17;68.69
13407;BME280;6774;48.208;10.766;2023-03-13T08:40:30;94882.00;;;12.05;69.23
13407;BME280;6774;48.208;10.766;2023-03-13T08:42:57;94863.44;;;12.18;69.25
13407;BME280;6774;48.208;10.766;2023-03-13T08:45:25;94868.00;;;12.36;67.85
13407;BME280;6774;48.208;10.766;2023-03-13T08:47:53;94864.13;;;12.64;68.91
13407;BME280;6774;48.208;10.766;2023-03-13T08:50:20;94875.00;;;12.80;65.82
13407;BME280;6774;48.208;10.766;2023-03-13T08:52:50;94858.41;;;13.10;64.74
13407;BME280;6774;48.208;10.766;2023-03-13T08:55:17;94862.31;;;13.07;65.97
13407;BME280;6774;48.208;10.766;2023-03-13T08:57:45;94855.00;;;12.85;65.73
13407;BME280;6774;48.208;10.766;2023-03-13T09:00:14;94862.97;;;13.03;65.80
13407;BME280;6774;48.208;10.766;2023-03-13T09:02:42;94841.78;;;13.28;67.10
13407;BME280;6774;48.208;10.766;2023-03-13T09:05:09;94860.97;;;13.60;64.19
13407;BME280;6774;48.208;10.766;2023-03-13T09:07:37;94829.34;;;14.07;65.08
13407;BME280;6774;48.208;10.766;2023-03-13T09:10:08;94827.06;;;13.80;62.09
13407;BME280;6774;48.208;10.766;2023-03-13T09:12:35;94827.38;;;13.72;63.31
13407;BME280;6774;48.208;10.766;2023-03-13T09:15:04;94813.44;;;14.07;62.46
13407;BME280;6774;48.208;10.766;2023-03-13T09:17:32;94816.72;;;14.20;65.23
13407;BME280;6774;48.208;10.766;2023-03-13T09:20:00;94802.72;;;14.13;62.32
13407;BME280;6774;48.208;10.766;2023-03-13T09:22:28;94816.63;;;14.27;65.10
13407;BME280;6774;48.208;10.766;2023-03-13T09:24:55;94803.59;;;14.37;64.38
13407;BME280;6774;48.208;10.766;2023-03-13T09:27:24;94821.72;;;14.29;61.82
13407;BME280;6774;48.208;10.766;2023-03-13T09:29:53;94819.28;;;14.27;62.42
13407;BME280;6774;48.208;10.766;2023-03-13T09:32:21;94813.94;;;14.15;62.90
13407;BME280;6774;48.208;10.766;2023-03-13T09:34:49;94802.28;;;14.46;62.15
13407;BME280;6774;48.208;10.766;2023-03-13T09:37:16;94806.78;;;14.58;61.88
13407;BME280;6774;48.208;10.766;2023-03-13T09:39:44;94819.97;;;14.34;62.82
13407;BME280;6774;48.208;10.766;2023-03-13T09:42:15;94800.47;;;14.29;63.92
13407;BME280;6774;48.208;10.766;2023-03-13T09:44:49;94796.16;;;14.58;61.94
13407;BME280;6774;48.208;10.766;2023-03-13T09:47:23;94784.91;;;14.44;62.00
13407;BME280;6774;48.208;10.766;2023-03-13T09:49:55;94785.06;;;14.49;61.96
13407;BME280;6774;48.208;10.766;2023-03-13T09:52:29;94773.75;;;14.89;62.08
13407;BME280;6774;48.208;10.766;2023-03-13T09:55:02;94784.69;;;15.27;61.94
13407;BME280;6774;48.208;10.766;2023-03-13T09:57:33;94791.41;;;15.30;62.26
13407;BME280;6774;48.208;10.766;2023-03-13T10:00:05;94787.25;;;14.99;60.61
13407;BME280;6774;48.208;10.766;2023-03-13T10:02:39;94788.88;;;15.12;61.41
13407;BME280;6774;48.208;10.766;2023-03-13T10:05:14;94786.13;;;14.83;63.31
13407;BME280;6774;48.208;10.766;2023-03-13T10:07:44;94785.19;;;14.89;62.62
13407;BME280;6774;48.208;10.766;2023-03-13T10:10:14;94783.13;;;14.91;63.57
13407;BME280;6774;48.208;10.766;2023-03-13T10:12:45;94770.50;;;14.98;63.62
13407;BME280;6774;48.208;10.766;2023-03-13T10:15:27;94775.69;;;15.28;62.01
13407;BME280;6774;48.208;10.766;2023-03-13T10:17:58;94772.56;;;15.72;61.42
13407;BME280;6774;48.208;10.766;2023-03-13T10:20:33;94773.09;;;15.85;60.71
13407;BME280;6774;48.208;10.766;2023-03-13T10:23:04;94776.84;;;16.01;60.07
13407;BME280;6774;48.208;10.766;2023-03-13T10:25:34;94759.94;;;16.41;59.06
13407;BME280;6774;48.208;10.766;2023-03-13T10:28:04;94758.78;;;16.03;58.28
13407;BME280;6774;48.208;10.766;2023-03-13T10:30:35;94765.69;;;15.87;61.39
13407;BME280;6774;48.208;10.766;2023-03-13T10:33:18;94770.94;;;15.30;59.79
13407;BME280;6774;48.208;10.766;2023-03-13T10:35:58;94773.44;;;15.49;60.75
13407;BME280;6774;48.208;10.766;2023-03-13T10:38:27;94776.00;;;16.29;61.05
13407;BME280;6774;48.208;10.766;2023-03-13T10:40:59;94775.03;;;16.52;60.03
13407;BME280;6774;48.208;10.766;2023-03-13T10:43:28;94767.97;;;16.74;59.03
13407;BME280;6774;48.208;10.766;2023-03-13T10:45:57;94766.50;;;17.22;58.89
13407;BME280;6774;48.208;10.766;2023-03-13T10:48:29;94761.50;;;16.70;59.71
13407;BME280;6774;48.208;10.766;2023-03-13T10:51:03;94742.31;;;16.90;62.83
13407;BME280;6774;48.208;10.766;2023-03-13T10:53:32;94754.94;;;16.95;61.79
13407;BME280;6774;48.208;10.766;2023-03-13T10:56:09;94720.94;;;16.85;61.12
13407;BME280;6774;48.208;10.766;2023-03-13T10:58:40;94729.16;;;17.22;60.67
13407;BME280;6774;48.208;10.766;2023-03-13T11:01:20;94769.59;;;17.14;60.73
13407;BME280;6774;48.208;10.766;2023-03-13T11:03:49;94733.53;;;17.28;59.26
13407;BME280;6774;48.208;10.766;2023-03-13T11:06:29;94765.31;;;17.35;60.53
13407;BME280;6774;48.208;10.766;2023-03-13T11:09:01;94731.69;;;17.34;61.77
13407;BME280;6774;48.208;10.766;2023-03-13T11:11:29;94736.84;;;17.41;60.71
13407;BME280;6774;48.208;10.766;2023-03-13T11:14:07;94734.53;;;17.27;59.82
13407;BME280;6774;48.208;10.766;2023-03-13T11:16:43;94746.91;;;17.33;62.27
13407;BME280;6774;48.208;10.766;2023-03-13T11:19:33;94736.50;;;17.10;59.72
13407;BME280;6774;48.208;10.766;2023-03-13T11:22:14;94747.19;;;16.93;60.89
13407;BME280;6774;48.208;10.766;2023-03-13T11:24:48;94755.72;;;16.45;63.59
13407;BME280;6774;48.208;10.766;2023-03-13T11:27:27;94756.22;;;16.25;63.02
13407;BME280;6774;48.208;10.766;2023-03-13T11:30:06;94726.88;;;16.20;62.59
13407;BME280;6774;48.208;10.766;2023-03-13T11:32:41;94730.72;;;16.80;64.08
13407;BME280;6774;48.208;10.766;2023-03-13T11:35:20;94713.50;;;17.53;62.15
13407;BME280;6774;48.208;10.766;2023-03-13T11:37:50;94722.06;;;17.55;61.20
13407;BME280;6774;48.208;10.766;2023-03-13T11:40:23;94702.47;;;17.66;60.78
13407;BME280;6774;48.208;10.766;2023-03-13T11:43:16;94716.19;;;18.02;60.21
13407;BME280;6774;48.208;10.766;2023-03-13T11:49:06;94701.00;;;17.75;59.87
13407;BME280;6774;48.208;10.766;2023-03-13T11:51:48;94694.41;;;18.15;59.17
13407;BME280;6774;48.208;10.766;2023-03-13T11:54:49;94696.09;;;18.26;59.13
13407;BME280;6774;48.208;10.766;2023-03-13T11:57:24;94693.00;;;18.07;59.31
13407;BME280;6774;48.208;10.766;2023-03-13T12:00:12;94700.38;;;17.24;60.27
13407;BME280;6774;48.208;10.766;2023-03-13T12:02:45;94695.69;;;17.31;60.85
13407;BME280;6774;48.208;10.766;2023-03-13T12:05:19;94705.53;;;17.09;62.28
13407;BME280;6774;48.208;10.766;2023-03-13T12:07:51;94686.69;;;17.64;60.94
13407;BME280;6774;48.208;10.766;2023-03-13T12:10:25;94682.34;;;17.80;60.31
13407;BME280;6774;48.208;10.766;2023-03-13T12:12:59;94664.59;;;17.69;61.51
13407;BME280;6774;48.208;10.766;2023-03-13T12:15:31;94669.22;;;18.06;58.90
13407;BME280;6774;48.208;10.766;2023-03-13T12:18:04;94661.09;;;18.28;61.51
13407;BME280;6774;48.208;10.766;2023-03-13T12:20:41;94648.94;;;18.05;59.41
13407;BME280;6774;48.208;10.766;2023-03-13T12:23:17;94636.78;;;17.87;59.18
13407;BME280;6774;48.208;10.766;2023-03-13T12:25:50;94652.53;;;18.63;59.47
13407;BME280;6774;48.208;10.766;2023-03-13T12:28:28;94644.63;;;18.78;59.28
13407;BME280;6774;48.208;10.766;2023-03-13T12:31:05;94621.66;;;18.77;58.00
13407;BME280;6774;48.208;10.766;2023-03-13T12:33:39;94619.50;;;18.79;57.42
13407;BME280;6774;48.208;10.766;2023-03-13T12:36:12;94607.34;;;19.09;56.98
13407;BME280;6774;48.208;10.766;2023-03-13T12:38:48;94603.63;;;19.25;56.99
13407;BME280;6774;48.208;10.766;2023-03-13T12:41:23;94598.31;;;19.30;59.07
13407;BME280;6774;48.208;10.766;2023-03-13T12:43:53;94604.22;;;19.42;57.51
13407;BME280;6774;48.208;10.766;2023-03-13T12:46:44;94594.09;;;19.75;57.49
13407;BME280;6774;48.208;10.766;2023-03-13T12:49:33;94591.44;;;20.00;56.75
13407;BME280;6774;48.208;10.766;2023-03-13T12:52:27;94582.53;;;19.33;54.89
13407;BME280;6774;48.208;10.766;2023-03-13T12:55:19;94594.63;;;19.56;55.54
13407;BME280;6774;48.208;10.766;2023-03-13T12:58:11;94578.00;;;19.44;57.53
13407;BME280;6774;48.208;10.766;2023-03-13T13:00:43;94568.34;;;19.38;56.48
13407;BME280;6774;48.208;10.766;2023-03-13T13:03:25;94561.69;;;19.41;56.42
13407;BME280;6774;48.208;10.766;2023-03-13T13:06:04;94538.38;;;19.36;54.90
13407;BME280;6774;48.208;10.766;2023-03-13T13:08:40;94537.34;;;20.03;55.31
13407;BME280;6774;48.208;10.766;2023-03-13T13:17:55;94524.00;;;19.78;54.70
13407;BME280;6774;48.208;10.766;2023-03-13T13:20:44;94519.16;;;19.95;55.74
13407;BME280;6774;48.208;10.766;2023-03-13T13:26:48;94484.72;;;20.48;55.13
13407;BME280;6774;48.208;10.766;2023-03-13T13:32:42;94472.53;;;20.06;55.50
13407;BME280;6774;48.208;10.766;2023-03-13T13:35:31;94483.28;;;19.86;57.07
13407;BME280;6774;48.208;10.766;2023-03-13T13:38:28;94459.13;;;20.01;57.99
13407;BME280;6774;48.208;10.766;2023-03-13T13:44:25;94453.31;;;19.64;56.48
13407;BME280;6774;48.208;10.766;2023-03-13T13:46:55;94453.88;;;19.30;56.88
13407;BME280;6774;48.208;10.766;2023-03-13T13:49:32;94430.59;;;19.25;57.13
13407;BME280;6774;48.208;10.766;2023-03-13T13:52:36;94426.03;;;19.67;57.93
13407;BME280;6774;48.208;10.766;2023-03-13T13:55:31;94420.09;;;19.95;55.88
13407;BME280;6774;48.208;10.766;2023-03-13T13:58:01;94417.84;;;20.23;54.63